createdAt,value
2022-10-01T00:01:19.710Z,88.92
2022-10-01T00:03:46.707Z,89.64
2022-10-01T00:06:19.538Z,89.14
2022-10-01T00:08:49.613Z,89.50
2022-10-01T00:11:18.507Z,89.04
2022-10-01T00:13:45.869Z,89.25
2022-10-01T00:16:15.884Z,89.05
2022-10-01T00:18:44.807Z,89.54
2022-10-01T00:21:15.169Z,89.50
2022-10-01T00:23:42.816Z,89.15
2022-10-01T00:26:13.917Z,89.46
2022-10-01T00:28:43.537Z,89.70
2022-10-01T00:31:11.040Z,89.63
2022-10-01T00:33:38.849Z,89.51
2022-10-01T00:36:07.290Z,89.43
2022-10-01T00:38:35.318Z,89.56
2022-10-01T00:41:03.850Z,90.05
2022-10-01T00:43:36.268Z,89.63
2022-10-01T00:46:20.828Z,89.43
2022-10-01T00:49:13.821Z,89.63
2022-10-01T00:51:48.603Z,89.58
2022-10-01T00:54:23.989Z,89.95
2022-10-01T00:56:57.623Z,89.65
2022-10-01T00:59:24.779Z,89.77
2022-10-01T01:01:51.714Z,89.77
2022-10-01T01:04:18.589Z,89.49
2022-10-01T01:06:53.446Z,89.82
2022-10-01T01:09:21.364Z,89.89
2022-10-01T01:12:00.253Z,90.28
2022-10-01T01:14:49.843Z,90.81
2022-10-01T01:17:30.548Z,90.60
2022-10-01T01:20:12.509Z,90.40
2022-10-01T01:22:46.873Z,90.27
2022-10-01T01:25:24.785Z,90.57
2022-10-01T01:28:29.043Z,90.62
2022-10-01T01:31:04.753Z,90.71
2022-10-01T01:33:35.789Z,90.49
2022-10-01T01:36:15.965Z,90.91
2022-10-01T01:38:53.691Z,90.95
2022-10-01T01:41:26.051Z,90.30
2022-10-01T01:43:59.675Z,90.78
2022-10-01T01:46:29.110Z,90.71
2022-10-01T01:48:55.966Z,90.88
2022-10-01T01:51:30.363Z,91.03
2022-10-01T01:53:57.464Z,91.38
2022-10-01T01:56:24.497Z,91.04
2022-10-01T01:58:53.085Z,90.94
2022-10-01T02:01:40.455Z,90.94
2022-10-01T02:04:20.464Z,91.22
2022-10-01T02:06:52.859Z,91.35
2022-10-01T02:09:35.966Z,90.89
2022-10-01T02:12:21.756Z,91.11
2022-10-01T02:14:58.545Z,90.99
2022-10-01T02:17:32.727Z,90.61
2022-10-01T02:20:07.517Z,90.05
2022-10-01T02:22:36.997Z,89.30
2022-10-01T02:25:07.181Z,88.82
2022-10-01T02:27:40.385Z,88.67
2022-10-01T02:30:10.858Z,89.31
2022-10-01T02:32:45.067Z,88.97
2022-10-01T02:35:15.834Z,89.09
2022-10-01T02:37:44.694Z,89.50
2022-10-01T02:40:18.092Z,89.08
2022-10-01T02:42:53.101Z,88.66
2022-10-01T02:45:23.460Z,88.90
2022-10-01T02:48:04.571Z,88.47
2022-10-01T02:50:41.217Z,88.38
2022-10-01T02:53:37.289Z,88.34
2022-10-01T02:56:05.759Z,88.25
2022-10-01T02:58:34.870Z,88.06
2022-10-01T03:01:01.850Z,87.93
2022-10-01T03:03:28.672Z,87.99
2022-10-01T03:05:55.411Z,87.76
2022-10-01T03:08:22.211Z,87.85
2022-10-01T03:10:49.062Z,88.13
2022-10-01T03:13:15.927Z,87.85
2022-10-01T03:15:45.794Z,88.12
2022-10-01T03:18:12.584Z,87.87
2022-10-01T03:20:39.378Z,87.97
2022-10-01T03:23:06.094Z,88.37
2022-10-01T03:25:32.844Z,88.63
2022-10-01T03:27:59.751Z,88.60
2022-10-01T03:30:26.594Z,88.18
2022-10-01T03:32:53.453Z,88.38
2022-10-01T03:35:20.215Z,88.92
2022-10-01T03:37:46.977Z,88.63
2022-10-01T03:40:13.786Z,88.79
2022-10-01T03:42:40.544Z,88.76
2022-10-01T03:45:07.795Z,88.43
2022-10-01T03:47:34.713Z,88.30
2022-10-01T03:50:01.517Z,88.39
2022-10-01T03:52:28.364Z,88.49
2022-10-01T03:54:55.184Z,88.93
2022-10-01T03:57:22.116Z,88.48
2022-10-01T03:59:48.911Z,88.91
2022-10-01T04:02:15.751Z,88.33
2022-10-01T04:04:42.650Z,88.61
2022-10-01T04:07:09.396Z,88.62
2022-10-01T04:09:36.726Z,88.38
2022-10-01T04:12:03.677Z,88.65
2022-10-01T04:14:30.430Z,88.47
2022-10-01T04:16:57.268Z,87.76
2022-10-01T04:19:24.048Z,87.96
2022-10-01T04:21:50.879Z,87.78
2022-10-01T04:24:17.628Z,87.44
2022-10-01T04:26:44.438Z,87.95
2022-10-01T04:29:11.260Z,87.85
2022-10-01T04:31:38.342Z,87.96
2022-10-01T04:34:05.758Z,87.63
2022-10-01T04:36:32.568Z,87.20
2022-10-01T04:39:02.130Z,87.75
2022-10-01T04:41:31.257Z,88.03
2022-10-01T04:43:59.341Z,88.63
2022-10-01T04:46:26.502Z,88.25
2022-10-01T04:48:53.309Z,88.97
2022-10-01T04:51:20.273Z,88.97
2022-10-01T04:53:47.112Z,89.29
2022-10-01T04:56:13.902Z,89.59
2022-10-01T04:58:40.662Z,89.11
2022-10-01T05:01:07.631Z,89.53
2022-10-01T05:03:34.514Z,88.70
2022-10-01T05:06:01.501Z,88.72
2022-10-01T05:08:28.311Z,88.84
2022-10-01T05:10:55.095Z,89.12
2022-10-01T05:13:21.835Z,89.14
2022-10-01T05:15:49.770Z,89.11
2022-10-01T05:18:16.734Z,90.27
2022-10-01T05:20:43.452Z,91.00
2022-10-01T05:23:10.214Z,89.91
2022-10-01T05:25:37.057Z,89.76
2022-10-01T05:28:03.906Z,88.59
2022-10-01T05:30:31.395Z,88.69
2022-10-01T05:33:01.023Z,88.45
2022-10-01T05:35:28.576Z,89.12
2022-10-01T05:38:01.224Z,89.19
2022-10-01T05:40:29.197Z,88.78
2022-10-01T05:42:58.247Z,87.72
2022-10-01T05:45:27.697Z,88.50
2022-10-01T05:47:58.073Z,88.22
2022-10-01T05:50:25.371Z,88.52
2022-10-01T05:52:52.465Z,89.10
2022-10-01T05:55:19.939Z,89.47
2022-10-01T05:57:54.446Z,90.49
2022-10-01T06:00:21.356Z,89.86
2022-10-01T06:02:52.685Z,90.13
2022-10-01T06:05:20.646Z,90.39
2022-10-01T06:07:48.446Z,91.06
2022-10-01T06:10:15.730Z,91.48
2022-10-01T06:12:42.597Z,90.70
2022-10-01T06:15:10.698Z,91.42
2022-10-01T06:17:37.522Z,90.15
2022-10-01T06:20:04.636Z,89.49
2022-10-01T06:22:31.492Z,89.55
2022-10-01T06:24:58.232Z,88.91
2022-10-01T06:27:25.231Z,89.08
2022-10-01T06:29:52.017Z,88.84
2022-10-01T06:32:18.735Z,89.92
2022-10-01T06:34:45.909Z,90.28
2022-10-01T06:37:12.932Z,90.52
2022-10-01T06:39:39.652Z,90.51
2022-10-01T06:42:06.544Z,89.44
2022-10-01T06:44:33.307Z,90.53
2022-10-01T06:47:00.055Z,91.25
2022-10-01T06:49:26.782Z,90.83
2022-10-01T06:51:53.590Z,91.41
2022-10-01T06:54:20.303Z,91.61
2022-10-01T06:56:48.105Z,91.57
2022-10-01T06:59:14.975Z,90.50
2022-10-01T07:01:41.778Z,89.31
2022-10-01T07:04:08.589Z,89.74
2022-10-01T07:06:35.334Z,89.87
2022-10-01T07:09:02.105Z,88.68
2022-10-01T07:11:28.876Z,88.72
2022-10-01T07:13:55.655Z,89.13
2022-10-01T07:16:22.633Z,88.28
2022-10-01T07:18:49.478Z,87.83
2022-10-01T07:21:16.253Z,88.45
2022-10-01T07:23:43.000Z,87.68
2022-10-01T07:26:10.618Z,88.56
2022-10-01T07:28:37.538Z,88.24
2022-10-01T07:31:07.010Z,88.83
2022-10-01T07:33:33.903Z,89.20
2022-10-01T07:36:02.508Z,88.32
2022-10-01T07:38:29.480Z,88.79
2022-10-01T07:40:57.041Z,89.49
2022-10-01T07:43:24.079Z,87.97
2022-10-01T07:45:54.565Z,88.40
2022-10-01T07:48:21.474Z,87.95
2022-10-01T07:50:48.267Z,88.13
2022-10-01T07:53:15.362Z,88.07
2022-10-01T07:55:42.695Z,88.15
2022-10-01T07:58:10.006Z,87.32
2022-10-01T08:00:36.894Z,87.74
2022-10-01T08:03:04.562Z,86.73
2022-10-01T08:05:34.033Z,87.36
2022-10-01T08:08:03.776Z,86.83
2022-10-01T08:10:31.694Z,86.21
2022-10-01T08:13:08.005Z,86.57
2022-10-01T08:15:35.328Z,86.25
2022-10-01T08:18:03.842Z,85.98
2022-10-01T08:20:31.425Z,86.46
2022-10-01T08:23:05.275Z,85.09
2022-10-01T08:25:32.717Z,84.68
2022-10-01T08:27:59.526Z,84.05
2022-10-01T08:30:27.489Z,83.79
2022-10-01T08:32:59.447Z,83.84
2022-10-01T08:35:27.369Z,82.89
2022-10-01T08:37:54.398Z,82.10
2022-10-01T08:40:22.025Z,83.02
2022-10-01T08:42:57.325Z,82.97
2022-10-01T08:45:29.104Z,81.00
2022-10-01T08:48:02.171Z,81.17
2022-10-01T08:50:42.002Z,81.18
2022-10-01T08:53:16.708Z,79.41
2022-10-01T08:55:47.167Z,80.36
2022-10-01T08:58:23.686Z,80.24
2022-10-01T09:00:50.695Z,80.57
2022-10-01T09:03:19.011Z,79.99
2022-10-01T09:06:00.770Z,79.11
2022-10-01T09:09:08.801Z,79.38
2022-10-01T09:12:04.316Z,78.81
2022-10-01T09:14:40.252Z,78.77
2022-10-01T09:17:31.717Z,79.96
2022-10-01T09:20:10.405Z,80.85
2022-10-01T09:22:40.743Z,80.78
2022-10-01T09:25:27.797Z,80.40
2022-10-01T09:28:03.273Z,79.67
2022-10-01T09:30:31.905Z,78.37
2022-10-01T09:33:05.268Z,78.87
2022-10-01T09:35:46.633Z,78.66
2022-10-01T09:38:39.066Z,79.12
2022-10-01T09:41:08.532Z,78.62
2022-10-01T09:43:39.185Z,78.14
2022-10-01T09:46:08.345Z,78.40
2022-10-01T09:48:40.893Z,78.89
2022-10-01T09:51:30.327Z,78.01
2022-10-01T09:54:22.138Z,78.16
2022-10-01T09:56:56.444Z,78.52
2022-10-01T09:59:41.032Z,78.80
2022-10-01T10:02:18.236Z,79.06
2022-10-01T10:04:45.117Z,77.86
2022-10-01T10:07:17.664Z,79.20
2022-10-01T10:09:45.398Z,81.62
2022-10-01T10:12:41.911Z,84.16
2022-10-01T10:15:15.133Z,85.58
2022-10-01T10:17:44.498Z,85.06
2022-10-01T10:20:20.914Z,84.73
2022-10-01T10:22:47.669Z,84.61
2022-10-01T10:25:22.516Z,84.92
2022-10-01T10:27:56.278Z,83.99
2022-10-01T10:30:24.701Z,83.77
2022-10-01T10:32:54.313Z,84.05
2022-10-01T10:35:25.748Z,84.20
2022-10-01T10:37:57.701Z,83.98
2022-10-01T10:40:45.613Z,84.73
2022-10-01T10:43:20.985Z,84.71
2022-10-01T10:45:50.976Z,84.89
2022-10-01T10:48:19.120Z,84.07
2022-10-01T10:50:47.283Z,83.47
2022-10-01T10:53:20.696Z,83.26
2022-10-01T10:55:54.675Z,83.16
2022-10-01T10:58:25.546Z,83.10
2022-10-01T11:00:55.980Z,83.54
2022-10-01T11:03:26.406Z,82.83
2022-10-01T11:05:54.056Z,82.11
2022-10-01T11:08:24.518Z,82.37
2022-10-01T11:11:06.307Z,82.11
2022-10-01T11:14:02.079Z,82.57
2022-10-01T11:17:23.268Z,81.91
2022-10-01T11:20:28.626Z,82.52
2022-10-01T11:23:34.991Z,82.60
2022-10-01T11:26:10.531Z,82.02
2022-10-01T11:28:43.168Z,81.62
2022-10-01T11:31:53.967Z,81.64
2022-10-01T11:34:32.862Z,82.80
2022-10-01T11:37:27.242Z,83.23
2022-10-01T11:39:58.670Z,83.35
2022-10-01T11:42:34.244Z,82.05
2022-10-01T11:45:10.991Z,81.93
2022-10-01T11:47:44.243Z,81.79
2022-10-01T11:50:20.773Z,81.15
2022-10-01T11:52:56.496Z,81.73
2022-10-01T11:55:35.160Z,81.35
2022-10-01T11:58:31.144Z,81.73
2022-10-01T12:01:21.042Z,81.60
2022-10-01T12:03:53.730Z,81.34
2022-10-01T12:06:33.605Z,79.86
2022-10-01T12:09:19.953Z,79.61
2022-10-01T12:12:10.181Z,80.18
2022-10-01T12:14:55.708Z,80.00
2022-10-01T12:17:54.196Z,79.74
2022-10-01T12:20:36.373Z,79.87
2022-10-01T12:23:06.134Z,79.80
2022-10-01T12:26:17.823Z,78.25
2022-10-01T12:28:54.578Z,78.18
2022-10-01T12:31:40.201Z,79.10
2022-10-01T12:34:18.837Z,79.88
2022-10-01T12:37:14.509Z,80.00
2022-10-01T12:39:52.676Z,80.50
2022-10-01T12:42:47.316Z,80.52
2022-10-01T12:45:14.126Z,79.40
2022-10-01T12:47:55.699Z,78.18
2022-10-01T12:50:45.046Z,78.93
2022-10-01T12:53:25.889Z,78.62
2022-10-01T12:56:12.059Z,79.26
2022-10-01T12:59:14.437Z,78.65
2022-10-01T13:02:16.363Z,77.88
2022-10-01T13:04:58.166Z,72.20
2022-10-01T13:07:43.571Z,66.08
2022-10-01T13:10:28.099Z,63.20
2022-10-01T13:13:03.611Z,62.52
2022-10-01T13:15:35.930Z,63.56
2022-10-01T13:18:32.241Z,62.45
2022-10-01T13:21:17.234Z,63.57
2022-10-01T13:23:58.964Z,62.09
2022-10-01T13:26:41.927Z,60.73
2022-10-01T13:29:31.036Z,60.57
2022-10-01T13:32:00.923Z,59.46
2022-10-01T13:34:40.205Z,60.33
2022-10-01T13:37:29.897Z,60.55
2022-10-01T13:40:00.322Z,59.56
2022-10-01T13:42:31.064Z,61.54
2022-10-01T13:45:06.787Z,61.53
2022-10-01T13:47:36.936Z,60.67
2022-10-01T13:50:18.415Z,60.24
2022-10-01T13:52:45.449Z,59.76
2022-10-01T13:55:27.566Z,58.63
2022-10-01T13:58:06.238Z,59.99
2022-10-01T14:00:33.507Z,60.91
2022-10-01T14:03:23.816Z,59.85
2022-10-01T14:05:57.765Z,61.75
2022-10-01T14:08:34.508Z,60.00
2022-10-01T14:11:09.663Z,59.61
2022-10-01T14:13:45.867Z,60.77
2022-10-01T14:16:13.679Z,60.07
2022-10-01T14:18:43.781Z,61.53
2022-10-01T14:21:34.840Z,61.33
2022-10-01T14:24:23.047Z,60.76
2022-10-01T14:26:49.809Z,60.62
2022-10-01T14:29:58.441Z,60.89
2022-10-01T14:32:31.117Z,61.28
2022-10-01T14:35:20.369Z,61.73
2022-10-01T14:37:47.403Z,61.15
2022-10-01T14:40:22.206Z,60.41
2022-10-01T14:42:58.621Z,61.02
2022-10-01T14:45:26.072Z,60.45
2022-10-01T14:48:07.318Z,61.34
2022-10-01T14:50:37.510Z,61.25
2022-10-01T14:53:06.501Z,59.53
2022-10-01T14:55:35.312Z,60.35
2022-10-01T14:58:02.410Z,60.68
2022-10-01T15:00:31.330Z,60.86
2022-10-01T15:03:13.307Z,61.55
2022-10-01T15:05:40.149Z,62.22
2022-10-01T15:08:23.315Z,63.83
2022-10-01T15:10:53.523Z,62.50
2022-10-01T15:13:31.335Z,62.10
2022-10-01T15:15:58.332Z,63.76
2022-10-01T15:18:26.465Z,64.22
2022-10-01T15:21:06.834Z,63.20
2022-10-01T15:23:36.226Z,62.69
2022-10-01T15:26:06.664Z,62.64
2022-10-01T15:28:36.070Z,63.55
2022-10-01T15:31:05.471Z,62.73
2022-10-01T15:33:36.348Z,62.11
2022-10-01T15:36:06.022Z,62.92
2022-10-01T15:38:33.847Z,63.36
2022-10-01T15:41:26.630Z,63.28
2022-10-01T15:43:52.108Z,63.64
2022-10-01T15:46:25.075Z,63.15
2022-10-01T15:49:11.834Z,63.13
2022-10-01T15:51:50.671Z,63.51
2022-10-01T15:54:17.554Z,64.05
2022-10-01T15:56:47.799Z,65.45
2022-10-01T15:59:20.537Z,64.34
2022-10-01T16:01:47.620Z,65.35
2022-10-01T16:04:14.831Z,65.27
2022-10-01T16:06:48.519Z,65.64
2022-10-01T16:09:19.854Z,66.04
2022-10-01T16:11:52.530Z,65.96
2022-10-01T16:14:32.705Z,66.05
2022-10-01T16:17:17.608Z,66.05
2022-10-01T16:19:46.163Z,66.66
2022-10-01T16:22:34.571Z,67.10
2022-10-01T16:25:05.166Z,67.01
2022-10-01T16:27:48.404Z,67.16
2022-10-01T16:30:27.126Z,67.63
2022-10-01T16:32:55.350Z,67.75
2022-10-01T16:35:24.068Z,68.03
2022-10-01T16:37:53.331Z,68.38
2022-10-01T16:40:22.994Z,68.40
2022-10-01T16:42:51.229Z,68.92
2022-10-01T16:45:22.516Z,69.41
2022-10-01T16:47:49.375Z,69.50
2022-10-01T16:50:18.464Z,69.31
2022-10-01T16:52:45.292Z,69.44
2022-10-01T16:55:31.516Z,69.34
2022-10-01T16:57:58.337Z,69.79
2022-10-01T17:00:27.185Z,69.73
2022-10-01T17:02:54.967Z,69.43
2022-10-01T17:05:27.473Z,69.97
2022-10-01T17:07:55.777Z,69.38
2022-10-01T17:10:23.759Z,69.57
2022-10-01T17:12:51.169Z,69.14
2022-10-01T17:15:20.875Z,68.65
2022-10-01T17:17:47.659Z,68.40
2022-10-01T17:20:15.319Z,67.54
2022-10-01T17:22:42.129Z,67.83
2022-10-01T17:25:15.479Z,66.46
2022-10-01T17:27:42.338Z,66.24
2022-10-01T17:30:09.451Z,66.21
2022-10-01T17:32:36.363Z,66.70
2022-10-01T17:35:04.418Z,66.42
2022-10-01T17:37:31.265Z,66.81
2022-10-01T17:39:58.083Z,66.64
2022-10-01T17:42:24.934Z,67.25
2022-10-01T17:44:51.707Z,67.03
2022-10-01T17:47:18.515Z,67.46
2022-10-01T17:49:45.244Z,67.84
2022-10-01T17:52:12.112Z,67.74
2022-10-01T17:54:39.221Z,67.97
2022-10-01T17:57:06.070Z,67.96
2022-10-01T17:59:32.891Z,68.70
2022-10-01T18:01:59.738Z,68.89
2022-10-01T18:04:26.835Z,69.36
2022-10-01T18:06:57.949Z,69.93
2022-10-01T18:09:26.563Z,70.02
2022-10-01T18:11:53.404Z,70.69
2022-10-01T18:14:20.152Z,70.81
2022-10-01T18:16:47.000Z,71.23
2022-10-01T18:22:00.865Z,72.29
2022-10-01T18:24:28.567Z,72.28
2022-10-01T18:26:56.575Z,72.47
2022-10-01T18:29:37.760Z,72.72
2022-10-01T18:32:23.316Z,73.04
2022-10-01T18:34:58.637Z,73.56
2022-10-01T18:37:40.156Z,73.73
2022-10-01T18:40:35.977Z,73.98
2022-10-01T18:43:24.434Z,73.91
2022-10-01T18:46:35.747Z,74.23
2022-10-01T18:49:25.741Z,74.44
2022-10-01T18:52:18.738Z,74.33
2022-10-01T18:54:57.766Z,74.50
2022-10-01T18:57:46.123Z,75.01
2022-10-01T19:00:15.679Z,75.14
2022-10-01T19:02:57.896Z,75.23
2022-10-01T19:05:36.618Z,75.23
2022-10-01T19:08:28.925Z,75.47
2022-10-01T19:11:24.758Z,75.26
2022-10-01T19:14:31.851Z,75.92
2022-10-01T19:17:17.435Z,75.82
2022-10-01T19:20:02.822Z,75.40
2022-10-01T19:22:58.525Z,75.71
2022-10-01T19:25:29.057Z,76.04
2022-10-01T19:28:14.183Z,75.50
2022-10-01T19:31:17.739Z,75.61
2022-10-01T19:33:49.177Z,74.90
2022-10-01T19:36:32.426Z,75.42
2022-10-01T19:39:04.867Z,75.82
2022-10-01T19:41:51.636Z,75.96
2022-10-01T19:44:27.295Z,75.73
2022-10-01T19:47:14.870Z,75.31
2022-10-01T19:49:42.558Z,75.70
2022-10-01T19:52:14.245Z,75.06
2022-10-01T19:54:46.332Z,75.13
2022-10-01T19:57:13.056Z,75.18
2022-10-01T19:59:40.924Z,75.14
2022-10-01T20:02:31.759Z,75.35
2022-10-01T20:05:06.190Z,75.46
2022-10-01T20:07:45.951Z,75.26
2022-10-01T20:10:18.662Z,74.91
2022-10-01T20:12:45.639Z,74.76
2022-10-01T20:15:29.187Z,74.95
2022-10-01T20:18:28.470Z,74.07
2022-10-01T20:21:33.763Z,73.75
2022-10-01T20:24:09.570Z,73.58
2022-10-01T20:26:58.890Z,73.99
2022-10-01T20:29:55.222Z,74.10
2022-10-01T20:32:30.878Z,74.49
2022-10-01T20:35:22.209Z,73.92
2022-10-01T20:37:55.992Z,73.30
2022-10-01T20:40:38.662Z,72.98
2022-10-01T20:43:20.612Z,72.72
2022-10-01T20:45:51.566Z,72.95
2022-10-01T20:48:24.190Z,72.57
2022-10-01T20:50:53.564Z,72.53
2022-10-01T20:53:34.643Z,72.31
2022-10-01T20:56:10.532Z,71.88
2022-10-01T20:58:48.703Z,71.41
2022-10-01T21:01:22.209Z,71.52
2022-10-01T21:04:03.925Z,71.63
2022-10-01T21:06:42.432Z,71.78
2022-10-01T21:09:22.435Z,72.10
2022-10-01T21:12:15.665Z,71.22
2022-10-01T21:14:49.439Z,71.65
2022-10-01T21:17:21.259Z,71.56
2022-10-01T21:19:51.197Z,72.51
2022-10-01T21:22:30.078Z,72.51
2022-10-01T21:25:25.135Z,72.76
2022-10-01T21:28:29.281Z,74.66
2022-10-01T21:31:30.240Z,76.11
2022-10-01T21:34:13.493Z,76.62
2022-10-01T21:36:55.928Z,77.38
2022-10-01T21:39:33.571Z,78.35
2022-10-01T21:42:44.839Z,78.56
2022-10-01T21:45:40.993Z,78.45
2022-10-01T21:48:19.949Z,77.29
2022-10-01T21:50:56.403Z,77.05
2022-10-01T21:53:32.390Z,77.11
2022-10-01T21:56:21.472Z,77.09
2022-10-01T21:59:27.569Z,77.37
2022-10-01T22:02:28.540Z,76.78
2022-10-01T22:05:11.540Z,76.75
2022-10-01T22:08:00.535Z,75.77
2022-10-01T22:10:36.411Z,76.02
2022-10-01T22:13:14.183Z,75.28
2022-10-01T22:15:43.862Z,74.71
2022-10-01T22:18:24.407Z,74.45
2022-10-01T22:20:52.717Z,74.52
2022-10-01T22:23:20.047Z,74.42
2022-10-01T22:26:03.451Z,74.42
2022-10-01T22:28:37.706Z,74.72
2022-10-01T22:31:07.650Z,75.48
2022-10-01T22:33:40.315Z,75.45
2022-10-01T22:36:07.229Z,75.31
2022-10-01T22:38:47.969Z,75.34
2022-10-01T22:41:54.592Z,75.05
2022-10-01T22:44:23.508Z,75.54
2022-10-01T22:46:59.291Z,74.67
2022-10-01T22:50:00.659Z,75.10
2022-10-01T22:52:39.857Z,74.76
2022-10-01T22:55:34.023Z,74.87
2022-10-01T22:58:31.770Z,74.39
2022-10-01T23:01:25.778Z,74.63
2022-10-01T23:04:04.145Z,75.70
2022-10-01T23:06:36.687Z,76.00
2022-10-01T23:09:13.706Z,76.98
2022-10-01T23:11:52.154Z,77.92
2022-10-01T23:14:18.911Z,78.64
2022-10-01T23:16:51.471Z,78.71
2022-10-01T23:19:41.109Z,79.37
2022-10-01T23:22:35.210Z,79.71
2022-10-01T23:25:48.448Z,79.20
2022-10-01T23:28:25.774Z,79.72
2022-10-01T23:31:04.789Z,80.07
2022-10-01T23:34:02.830Z,80.51
2022-10-01T23:36:53.374Z,80.09
2022-10-01T23:39:32.981Z,80.00
2022-10-01T23:42:14.392Z,80.41
2022-10-01T23:44:53.400Z,79.92
2022-10-01T23:47:28.951Z,79.63
2022-10-01T23:49:58.052Z,79.21
2022-10-01T23:52:40.880Z,79.47
2022-10-01T23:55:36.234Z,78.91
2022-10-01T23:58:07.993Z,79.24
